createdAt,value
2022-10-15T00:00:50.477Z,10.59
2022-10-15T00:03:17.497Z,10.60
2022-10-15T00:05:44.389Z,10.61
2022-10-15T00:08:12.058Z,10.68
2022-10-15T00:10:38.756Z,10.67
2022-10-15T00:13:06.416Z,10.58
2022-10-15T00:15:33.392Z,10.66
2022-10-15T00:18:00.210Z,10.65
2022-10-15T00:20:27.032Z,10.56
2022-10-15T00:22:53.615Z,10.54
2022-10-15T00:25:20.551Z,10.57
2022-10-15T00:27:47.309Z,10.55
2022-10-15T00:30:14.117Z,10.59
2022-10-15T00:32:40.929Z,10.55
2022-10-15T00:35:07.792Z,10.57
2022-10-15T00:37:34.719Z,10.59
2022-10-15T00:42:33.081Z,10.58
2022-10-15T00:45:00.189Z,10.61
2022-10-15T00:47:48.977Z,10.66
2022-10-15T00:50:17.731Z,10.70
2022-10-15T00:52:59.728Z,10.67
2022-10-15T00:55:32.132Z,10.68
2022-10-15T00:58:02.121Z,10.62
2022-10-15T01:00:29.264Z,10.64
2022-10-15T01:02:56.095Z,10.59
2022-10-15T01:05:23.730Z,10.54
2022-10-15T01:07:50.533Z,10.61
2022-10-15T01:10:18.271Z,10.52
2022-10-15T01:12:52.149Z,10.54
2022-10-15T01:15:36.497Z,10.56
2022-10-15T01:18:19.831Z,10.54
2022-10-15T01:20:59.276Z,10.58
2022-10-15T01:23:58.442Z,10.65
2022-10-15T01:27:02.171Z,10.67
2022-10-15T01:30:04.829Z,10.54
2022-10-15T01:32:36.829Z,10.59
2022-10-15T01:35:23.125Z,10.60
2022-10-15T01:37:56.968Z,10.61
2022-10-15T01:40:35.203Z,10.63
2022-10-15T01:43:04.615Z,10.64
2022-10-15T01:45:41.149Z,10.55
2022-10-15T01:48:12.631Z,10.59
2022-10-15T01:50:44.058Z,10.63
2022-10-15T01:53:12.028Z,10.66
2022-10-15T01:55:42.771Z,10.61
2022-10-15T01:58:10.683Z,10.59
2022-10-15T02:00:38.738Z,10.54
2022-10-15T02:03:05.518Z,10.46
2022-10-15T02:05:37.389Z,10.53
2022-10-15T02:08:31.500Z,10.56
2022-10-15T02:11:04.969Z,10.63
2022-10-15T02:13:40.629Z,10.64
2022-10-15T02:16:14.369Z,10.61
2022-10-15T02:18:52.180Z,10.51
2022-10-15T02:21:32.193Z,10.54
2022-10-15T02:24:20.569Z,10.52
2022-10-15T02:26:47.432Z,10.49
2022-10-15T02:29:18.415Z,10.46
2022-10-15T02:31:47.553Z,10.51
2022-10-15T02:34:18.937Z,10.45
2022-10-15T02:36:45.937Z,10.54
2022-10-15T02:39:16.277Z,10.53
2022-10-15T02:41:44.141Z,10.56
2022-10-15T02:44:10.969Z,10.57
2022-10-15T02:46:37.710Z,10.62
2022-10-15T02:49:04.510Z,10.61
2022-10-15T02:51:35.738Z,10.65
2022-10-15T02:54:04.512Z,10.65
2022-10-15T02:56:31.882Z,10.66
2022-10-15T02:58:58.821Z,10.70
2022-10-15T03:01:25.765Z,10.65
2022-10-15T03:03:52.598Z,10.65
2022-10-15T03:06:19.385Z,10.62
2022-10-15T03:08:46.119Z,10.51
2022-10-15T03:11:12.971Z,10.52
2022-10-15T03:13:40.208Z,10.55
2022-10-15T03:16:11.336Z,10.61
2022-10-15T03:18:40.627Z,10.54
2022-10-15T03:21:07.852Z,10.48
2022-10-15T03:23:34.683Z,10.51
2022-10-15T03:26:01.662Z,10.47
2022-10-15T03:28:28.494Z,10.44
2022-10-15T03:30:55.490Z,10.37
2022-10-15T03:33:24.455Z,10.38
2022-10-15T03:35:52.900Z,10.37
2022-10-15T03:38:19.692Z,10.37
2022-10-15T03:40:46.733Z,10.37
2022-10-15T03:43:13.551Z,10.37
2022-10-15T03:45:40.369Z,10.40
2022-10-15T03:48:07.349Z,10.40
2022-10-15T03:50:34.376Z,10.40
2022-10-15T03:53:04.169Z,10.41
2022-10-15T03:55:31.019Z,10.38
2022-10-15T03:57:57.731Z,10.47
2022-10-15T04:00:24.697Z,10.39
2022-10-15T04:02:51.509Z,10.37
2022-10-15T04:05:18.148Z,10.46
2022-10-15T04:07:44.954Z,10.47
2022-10-15T04:10:12.057Z,10.39
2022-10-15T04:12:38.784Z,10.40
2022-10-15T04:15:05.950Z,10.31
2022-10-15T04:17:32.681Z,10.40
2022-10-15T04:19:59.448Z,10.34
2022-10-15T04:22:26.373Z,10.39
2022-10-15T04:24:53.292Z,10.37
2022-10-15T04:27:19.908Z,10.37
2022-10-15T04:29:48.953Z,10.35
2022-10-15T04:32:16.306Z,10.35
2022-10-15T04:34:43.289Z,10.45
2022-10-15T04:37:09.830Z,10.44
2022-10-15T04:39:36.565Z,10.35
2022-10-15T04:42:03.175Z,10.43
2022-10-15T04:44:29.797Z,10.36
2022-10-15T04:46:56.822Z,10.39
2022-10-15T04:49:23.418Z,10.38
2022-10-15T04:51:49.986Z,10.44
2022-10-15T04:54:16.799Z,10.42
2022-10-15T04:56:43.376Z,10.36
2022-10-15T04:59:10.152Z,10.33
2022-10-15T05:01:36.886Z,10.33
2022-10-15T05:04:03.584Z,10.43
2022-10-15T05:06:30.172Z,10.44
2022-10-15T05:08:56.858Z,10.47
2022-10-15T05:11:25.938Z,10.50
2022-10-15T05:13:53.103Z,10.49
2022-10-15T05:16:23.900Z,10.51
2022-10-15T05:18:52.609Z,10.46
2022-10-15T05:21:20.010Z,10.42
2022-10-15T05:23:47.357Z,10.48
2022-10-15T05:26:15.856Z,10.52
2022-10-15T05:28:42.874Z,10.55
2022-10-15T05:31:18.648Z,10.45
2022-10-15T05:33:47.090Z,10.42
2022-10-15T05:36:17.999Z,10.46
2022-10-15T05:38:46.134Z,10.51
2022-10-15T05:41:12.943Z,10.46
2022-10-15T05:43:41.335Z,10.50
2022-10-15T05:46:08.809Z,10.56
2022-10-15T05:48:35.444Z,10.56
2022-10-15T05:51:06.302Z,10.60
2022-10-15T05:53:33.150Z,10.65
2022-10-15T05:56:00.230Z,10.64
2022-10-15T05:58:31.986Z,10.67
2022-10-15T06:01:03.453Z,10.62
2022-10-15T06:03:30.717Z,10.66
2022-10-15T06:05:57.357Z,10.67
2022-10-15T06:08:24.260Z,10.69
2022-10-15T06:10:50.941Z,10.72
2022-10-15T06:13:17.589Z,10.76
2022-10-15T06:15:45.625Z,10.77
2022-10-15T06:18:15.939Z,10.72
2022-10-15T06:20:43.722Z,10.75
2022-10-15T06:23:11.653Z,10.81
2022-10-15T06:25:38.382Z,10.87
2022-10-15T06:28:06.688Z,10.80
2022-10-15T06:30:33.922Z,10.83
2022-10-15T06:33:00.765Z,10.85
2022-10-15T06:35:30.515Z,10.88
2022-10-15T06:38:02.989Z,10.89
2022-10-15T06:40:30.872Z,10.88
2022-10-15T06:43:08.723Z,10.89
2022-10-15T06:45:37.020Z,10.84
2022-10-15T06:48:06.801Z,10.87
2022-10-15T06:50:34.751Z,10.88
2022-10-15T06:53:01.516Z,10.88
2022-10-15T06:55:29.132Z,10.84
2022-10-15T06:57:56.424Z,10.84
2022-10-15T07:00:24.378Z,10.84
2022-10-15T07:02:51.454Z,10.89
2022-10-15T07:05:18.741Z,11.13
2022-10-15T07:07:55.587Z,11.29
2022-10-15T07:10:23.232Z,11.26
2022-10-15T07:12:49.992Z,11.27
2022-10-15T07:15:17.073Z,11.14
2022-10-15T07:17:50.508Z,11.14
2022-10-15T07:20:21.622Z,11.22
2022-10-15T07:22:50.134Z,11.23
2022-10-15T07:25:16.879Z,11.16
2022-10-15T07:27:43.493Z,11.21
2022-10-15T07:30:10.835Z,11.32
2022-10-15T07:32:37.621Z,11.30
2022-10-15T07:35:05.284Z,11.27
2022-10-15T07:37:32.221Z,11.31
2022-10-15T07:39:59.104Z,11.29
2022-10-15T07:42:26.070Z,11.21
2022-10-15T07:44:52.781Z,11.35
2022-10-15T07:47:19.613Z,11.34
2022-10-15T07:49:46.369Z,11.30
2022-10-15T07:52:13.262Z,11.29
2022-10-15T07:54:40.073Z,11.32
2022-10-15T07:57:09.741Z,11.32
2022-10-15T07:59:36.593Z,11.35
2022-10-15T08:02:03.554Z,11.45
2022-10-15T08:04:30.790Z,11.48
2022-10-15T08:06:57.497Z,11.59
2022-10-15T08:09:24.150Z,11.67
2022-10-15T08:11:50.873Z,11.64
2022-10-15T08:14:17.940Z,11.64
2022-10-15T08:16:44.691Z,11.60
2022-10-15T08:19:11.430Z,11.56
2022-10-15T08:21:38.179Z,11.64
2022-10-15T08:24:05.772Z,11.53
2022-10-15T08:26:32.565Z,11.53
2022-10-15T08:28:59.526Z,11.51
2022-10-15T08:31:26.203Z,11.57
2022-10-15T08:33:53.051Z,11.63
2022-10-15T08:36:19.963Z,11.63
2022-10-15T08:38:46.746Z,11.65
2022-10-15T08:41:34.697Z,11.73
2022-10-15T08:44:01.947Z,11.80
2022-10-15T08:46:38.417Z,11.78
2022-10-15T08:49:05.633Z,11.75
2022-10-15T08:51:39.847Z,11.75
2022-10-15T08:54:07.302Z,11.71
2022-10-15T08:56:37.001Z,11.68
2022-10-15T08:59:31.814Z,11.67
2022-10-15T09:02:16.647Z,11.71
2022-10-15T09:04:43.390Z,11.66
2022-10-15T09:07:21.133Z,11.67
2022-10-15T09:10:16.761Z,11.74
2022-10-15T09:13:00.365Z,11.77
2022-10-15T09:15:28.073Z,11.85
2022-10-15T09:17:55.302Z,11.81
2022-10-15T09:20:33.955Z,11.84
2022-10-15T09:23:00.536Z,11.89
2022-10-15T09:25:34.957Z,11.94
2022-10-15T09:28:10.545Z,12.06
2022-10-15T09:30:43.833Z,12.03
2022-10-15T09:33:16.602Z,12.06
2022-10-15T09:35:44.388Z,12.24
2022-10-15T09:38:28.271Z,12.24
2022-10-15T09:41:16.825Z,12.04
2022-10-15T09:43:47.242Z,12.06
2022-10-15T09:46:14.213Z,12.08
2022-10-15T09:49:03.626Z,12.25
2022-10-15T09:51:40.969Z,12.29
2022-10-15T09:54:37.694Z,12.33
2022-10-15T09:57:09.548Z,12.27
2022-10-15T09:59:36.786Z,12.32
2022-10-15T10:02:19.248Z,12.52
2022-10-15T10:04:46.296Z,12.62
2022-10-15T10:07:32.082Z,12.71
2022-10-15T10:10:02.708Z,12.72
2022-10-15T10:12:33.277Z,12.65
2022-10-15T10:15:10.478Z,12.57
2022-10-15T10:17:37.463Z,12.60
2022-10-15T10:20:10.267Z,12.47
2022-10-15T10:22:56.131Z,12.45
2022-10-15T10:25:52.341Z,12.48
2022-10-15T10:28:28.351Z,12.56
2022-10-15T10:30:58.492Z,12.54
2022-10-15T10:33:28.642Z,12.73
2022-10-15T10:35:56.249Z,12.86
2022-10-15T10:38:27.849Z,12.84
2022-10-15T10:41:05.400Z,12.73
2022-10-15T10:43:38.226Z,12.88
2022-10-15T10:46:17.159Z,12.77
2022-10-15T10:48:49.098Z,12.87
2022-10-15T10:51:19.381Z,12.86
2022-10-15T10:54:06.741Z,12.90
2022-10-15T10:56:37.817Z,13.02
2022-10-15T10:59:23.658Z,12.98
2022-10-15T11:01:51.105Z,13.21
2022-10-15T11:04:28.402Z,13.38
2022-10-15T11:07:20.173Z,13.61
2022-10-15T11:10:16.150Z,13.64
2022-10-15T11:12:52.286Z,13.70
2022-10-15T11:15:51.207Z,13.83
2022-10-15T11:18:52.890Z,14.02
2022-10-15T11:21:55.261Z,14.01
2022-10-15T11:24:33.471Z,13.91
2022-10-15T11:27:31.028Z,13.88
2022-10-15T11:30:26.529Z,13.89
2022-10-15T11:33:32.142Z,13.99
2022-10-15T11:36:17.766Z,13.85
2022-10-15T11:38:53.703Z,13.90
2022-10-15T11:41:20.288Z,13.85
2022-10-15T11:43:57.428Z,13.94
2022-10-15T11:46:53.819Z,14.04
2022-10-15T11:49:57.345Z,14.01
2022-10-15T11:52:50.808Z,13.93
2022-10-15T11:55:25.610Z,13.80
2022-10-15T11:57:54.478Z,13.67
2022-10-15T12:00:33.136Z,13.73
2022-10-15T12:03:10.034Z,13.75
2022-10-15T12:05:53.714Z,13.76
2022-10-15T12:08:21.485Z,13.81
2022-10-15T12:10:53.695Z,13.90
2022-10-15T12:13:23.219Z,13.98
2022-10-15T12:15:49.776Z,13.94
2022-10-15T12:18:45.928Z,13.92
2022-10-15T12:21:56.927Z,13.81
2022-10-15T12:24:39.644Z,13.87
2022-10-15T12:27:26.802Z,13.85
2022-10-15T12:30:13.405Z,13.92
2022-10-15T12:32:46.542Z,13.85
2022-10-15T12:35:16.217Z,13.89
2022-10-15T12:37:45.822Z,13.90
2022-10-15T12:40:21.549Z,13.86
2022-10-15T12:42:53.507Z,13.88
2022-10-15T12:45:40.843Z,13.94
2022-10-15T12:48:20.480Z,13.88
2022-10-15T12:50:47.480Z,13.93
2022-10-15T12:53:28.825Z,14.17
2022-10-15T12:56:10.829Z,14.25
2022-10-15T12:58:39.293Z,14.25
2022-10-15T13:01:27.079Z,14.39
2022-10-15T13:03:58.562Z,14.36
2022-10-15T13:06:31.675Z,14.32
2022-10-15T13:09:11.744Z,14.18
2022-10-15T13:14:36.987Z,14.15
2022-10-15T13:17:06.692Z,14.13
2022-10-15T13:19:41.618Z,14.11
2022-10-15T13:22:21.772Z,14.32
2022-10-15T13:24:49.000Z,14.32
2022-10-15T13:27:27.389Z,14.40
2022-10-15T13:30:05.567Z,14.40
2022-10-15T13:32:36.460Z,14.30
2022-10-15T13:35:10.522Z,14.40
2022-10-15T13:37:39.722Z,14.47
2022-10-15T13:40:08.296Z,14.39
2022-10-15T13:42:35.479Z,14.51
2022-10-15T13:45:14.309Z,14.68
2022-10-15T13:47:49.499Z,14.96
2022-10-15T13:50:35.611Z,15.46
2022-10-15T13:53:34.881Z,15.85
2022-10-15T13:56:27.445Z,16.17
2022-10-15T13:58:55.141Z,16.23
2022-10-15T14:01:23.980Z,16.19
2022-10-15T14:04:01.620Z,16.35
2022-10-15T14:06:38.260Z,16.31
2022-10-15T14:09:16.641Z,16.14
2022-10-15T14:11:43.400Z,16.17
2022-10-15T14:14:33.910Z,16.40
2022-10-15T14:17:03.811Z,16.53
2022-10-15T14:19:31.442Z,16.63
2022-10-15T14:21:59.199Z,16.74
2022-10-15T14:24:33.560Z,16.53
2022-10-15T14:27:08.574Z,16.57
2022-10-15T14:29:43.119Z,16.44
2022-10-15T14:32:21.000Z,16.30
2022-10-15T14:34:48.587Z,16.12
2022-10-15T14:37:46.041Z,16.00
2022-10-15T14:40:18.738Z,15.96
2022-10-15T14:43:02.640Z,15.89
2022-10-15T14:45:36.507Z,15.95
2022-10-15T14:48:15.231Z,15.87
2022-10-15T14:50:44.610Z,15.78
2022-10-15T14:53:19.542Z,15.72
2022-10-15T14:55:52.556Z,15.63
2022-10-15T14:58:23.107Z,15.55
2022-10-15T15:00:56.620Z,15.57
2022-10-15T15:03:28.622Z,15.58
2022-10-15T15:05:57.010Z,15.43
2022-10-15T15:08:26.000Z,15.19
2022-10-15T15:10:55.674Z,15.06
2022-10-15T15:13:24.708Z,15.03
2022-10-15T15:15:52.080Z,14.93
2022-10-15T15:18:19.708Z,14.87
2022-10-15T15:20:48.423Z,14.79
2022-10-15T15:23:21.149Z,14.76
2022-10-15T15:25:48.081Z,14.57
2022-10-15T15:28:23.083Z,14.53
2022-10-15T15:31:05.532Z,14.45
2022-10-15T15:33:32.981Z,14.42
2022-10-15T15:36:08.018Z,14.36
2022-10-15T15:41:16.589Z,14.19
2022-10-15T15:43:43.870Z,14.15
2022-10-15T15:46:10.713Z,14.08
2022-10-15T15:48:38.061Z,14.07
2022-10-15T15:51:07.670Z,14.02
2022-10-15T15:53:35.401Z,14.01
2022-10-15T15:56:02.180Z,14.01
2022-10-15T15:58:28.921Z,13.94
2022-10-15T16:00:55.570Z,13.91
2022-10-15T16:03:22.271Z,13.87
2022-10-15T16:08:21.617Z,13.70
2022-10-15T16:10:48.437Z,13.65
2022-10-15T16:13:15.349Z,13.60
2022-10-15T16:15:42.075Z,13.58
2022-10-15T16:18:09.368Z,13.50
2022-10-15T16:20:39.613Z,13.29
2022-10-15T16:23:06.558Z,13.24
2022-10-15T16:25:33.292Z,13.15
2022-10-15T16:28:01.996Z,13.07
2022-10-15T16:30:29.039Z,13.02
2022-10-15T16:32:55.942Z,12.96
2022-10-15T16:35:22.857Z,12.93
2022-10-15T16:37:52.331Z,12.98
2022-10-15T16:40:19.231Z,12.91
2022-10-15T16:42:45.893Z,12.81
2022-10-15T16:45:12.650Z,12.78
2022-10-15T16:47:39.310Z,12.64
2022-10-15T16:50:06.597Z,12.69
2022-10-15T16:52:36.259Z,12.57
2022-10-15T16:55:03.190Z,12.57
2022-10-15T16:57:29.859Z,12.57
2022-10-15T16:59:56.629Z,12.55
2022-10-15T17:02:23.521Z,12.46
2022-10-15T17:04:50.453Z,12.44
2022-10-15T17:07:17.428Z,12.36
2022-10-15T17:09:45.086Z,12.38
2022-10-15T17:12:11.993Z,12.24
2022-10-15T17:14:38.719Z,12.20
2022-10-15T17:17:07.761Z,12.22
2022-10-15T17:19:35.211Z,12.14
2022-10-15T17:22:02.077Z,12.15
2022-10-15T17:24:28.820Z,12.17
2022-10-15T17:26:58.029Z,12.14
2022-10-15T17:29:27.873Z,12.06
2022-10-15T17:31:57.571Z,12.09
2022-10-15T17:34:24.312Z,12.07
2022-10-15T17:36:52.318Z,12.06
2022-10-15T17:39:20.540Z,12.04
2022-10-15T17:41:47.308Z,12.09
2022-10-15T17:44:14.468Z,12.10
2022-10-15T17:46:41.500Z,12.12
2022-10-15T17:49:11.117Z,12.05
2022-10-15T17:51:37.893Z,12.00
2022-10-15T17:54:06.729Z,12.03
2022-10-15T17:56:35.976Z,11.98
2022-10-15T17:59:06.471Z,11.99
2022-10-15T18:04:36.689Z,12.06
2022-10-15T18:07:04.155Z,12.03
2022-10-15T18:09:34.436Z,12.09
2022-10-15T18:12:02.418Z,12.16
2022-10-15T18:14:32.009Z,12.22
2022-10-15T18:16:59.040Z,12.24
2022-10-15T18:19:27.785Z,12.27
2022-10-15T18:21:56.403Z,12.30
2022-10-15T18:24:24.891Z,12.28
2022-10-15T18:26:53.123Z,12.30
2022-10-15T18:29:20.701Z,12.32
2022-10-15T18:31:57.179Z,12.33
2022-10-15T18:34:25.109Z,12.34
2022-10-15T18:36:52.634Z,12.34
2022-10-15T18:39:19.598Z,12.37
2022-10-15T18:41:46.307Z,12.40
2022-10-15T18:44:16.812Z,12.45
2022-10-15T18:46:45.145Z,12.41
2022-10-15T18:49:13.566Z,12.36
2022-10-15T18:51:40.563Z,12.35
2022-10-15T18:54:08.770Z,12.37
2022-10-15T18:56:36.675Z,12.34
2022-10-15T18:59:03.570Z,12.30
2022-10-15T19:01:36.796Z,12.34
2022-10-15T19:04:06.074Z,12.27
2022-10-15T19:06:39.197Z,12.25
2022-10-15T19:09:09.249Z,12.27
2022-10-15T19:11:37.558Z,12.32
2022-10-15T19:14:05.074Z,12.33
2022-10-15T19:16:32.313Z,12.32
2022-10-15T19:18:59.955Z,12.37
2022-10-15T19:21:27.498Z,12.40
2022-10-15T19:23:54.369Z,12.37
2022-10-15T19:26:21.472Z,12.36
2022-10-15T19:28:50.591Z,12.28
2022-10-15T19:31:28.085Z,12.29
2022-10-15T19:33:58.360Z,12.32
2022-10-15T19:36:27.983Z,12.25
2022-10-15T19:38:55.838Z,12.17
2022-10-15T19:41:22.588Z,12.09
2022-10-15T19:43:49.300Z,12.08
2022-10-15T19:46:16.460Z,12.07
2022-10-15T19:48:43.222Z,12.09
2022-10-15T19:51:10.124Z,12.03
2022-10-15T19:53:36.837Z,12.00
2022-10-15T19:56:08.555Z,11.95
2022-10-15T19:58:35.809Z,11.90
2022-10-15T20:01:02.747Z,11.84
2022-10-15T20:03:30.298Z,11.82
2022-10-15T20:05:58.325Z,11.69
2022-10-15T20:08:25.040Z,11.64
2022-10-15T20:10:52.469Z,11.60
2022-10-15T20:13:21.713Z,11.60
2022-10-15T20:15:50.788Z,11.57
2022-10-15T20:18:17.946Z,11.50
2022-10-15T20:20:45.721Z,11.56
2022-10-15T20:23:14.697Z,11.58
2022-10-15T20:25:42.893Z,11.60
2022-10-15T20:28:11.117Z,11.62
2022-10-15T20:30:39.023Z,11.58
2022-10-15T20:33:06.921Z,11.46
2022-10-15T20:35:37.001Z,11.44
2022-10-15T20:38:04.068Z,11.42
2022-10-15T20:40:31.376Z,11.44
2022-10-15T20:42:58.083Z,11.38
2022-10-15T20:45:27.551Z,11.39
2022-10-15T20:47:54.370Z,11.30
2022-10-15T20:50:27.141Z,11.26
2022-10-15T20:52:54.771Z,11.31
2022-10-15T20:55:21.671Z,11.31
2022-10-15T20:57:48.314Z,11.36
2022-10-15T21:00:15.289Z,11.37
2022-10-15T21:02:42.160Z,11.39
2022-10-15T21:05:09.817Z,11.45
2022-10-15T21:07:36.438Z,11.50
2022-10-15T21:10:03.593Z,11.65
2022-10-15T21:12:30.158Z,11.58
2022-10-15T21:14:56.830Z,11.63
2022-10-15T21:17:23.768Z,11.67
2022-10-15T21:19:52.814Z,11.65
2022-10-15T21:22:19.936Z,11.64
2022-10-15T21:24:46.555Z,11.64
2022-10-15T21:27:13.160Z,11.60
2022-10-15T21:29:39.876Z,11.57
2022-10-15T21:32:06.468Z,11.54
2022-10-15T21:34:33.092Z,11.51
2022-10-15T21:36:59.640Z,11.50
2022-10-15T21:39:26.427Z,11.43
2022-10-15T21:41:53.069Z,11.40
2022-10-15T21:44:19.798Z,11.42
2022-10-15T21:46:46.332Z,11.37
2022-10-15T21:49:14.029Z,11.33
2022-10-15T21:51:41.029Z,11.26
2022-10-15T21:54:09.060Z,11.27
2022-10-15T21:56:36.115Z,11.28
2022-10-15T21:59:03.214Z,11.34
2022-10-15T22:01:32.378Z,11.36
2022-10-15T22:04:01.696Z,11.29
2022-10-15T22:06:28.571Z,11.32
2022-10-15T22:08:55.235Z,11.33
2022-10-15T22:11:24.303Z,11.37
2022-10-15T22:13:59.215Z,11.31
2022-10-15T22:16:27.057Z,11.33
2022-10-15T22:18:54.454Z,11.35
2022-10-15T22:21:29.489Z,11.38
2022-10-15T22:23:58.850Z,11.40
2022-10-15T22:26:31.470Z,11.48
2022-10-15T22:28:59.661Z,11.50
2022-10-15T22:31:26.981Z,11.45
2022-10-15T22:33:53.711Z,11.24
2022-10-15T22:36:22.890Z,11.22
2022-10-15T22:38:53.457Z,11.23
2022-10-15T22:41:20.057Z,11.29
2022-10-15T22:43:46.660Z,11.24
2022-10-15T22:46:13.693Z,11.28
2022-10-15T22:48:41.662Z,11.33
2022-10-15T22:51:10.455Z,11.33
2022-10-15T22:53:37.280Z,11.28
2022-10-15T22:56:07.478Z,11.25
2022-10-15T22:58:34.747Z,11.20
2022-10-15T23:01:13.599Z,11.20
2022-10-15T23:03:42.833Z,11.17
2022-10-15T23:06:10.044Z,11.20
2022-10-15T23:08:37.310Z,11.29
2022-10-15T23:11:10.646Z,11.32
2022-10-15T23:13:38.277Z,11.37
2022-10-15T23:16:12.388Z,11.40
2022-10-15T23:18:39.195Z,11.43
2022-10-15T23:21:17.021Z,11.38
2022-10-15T23:23:44.820Z,11.38
2022-10-15T23:26:16.085Z,11.43
2022-10-15T23:28:44.262Z,11.43
2022-10-15T23:31:26.516Z,11.51
2022-10-15T23:33:54.556Z,11.53
2022-10-15T23:36:22.475Z,11.54
2022-10-15T23:38:51.029Z,11.55
2022-10-15T23:41:17.980Z,11.59
2022-10-15T23:43:44.736Z,11.51
2022-10-15T23:46:11.726Z,11.46
2022-10-15T23:48:38.367Z,11.44
2022-10-15T23:51:12.445Z,11.44
2022-10-15T23:53:39.259Z,11.44
2022-10-15T23:56:05.939Z,11.42
2022-10-15T23:58:32.665Z,11.38
